createdAt,value
2018-11-04T00:02:10.292Z,42.17
2018-11-04T00:04:39.214Z,44.00
2018-11-04T00:07:08.034Z,41.40
2018-11-04T00:09:37.706Z,37.40
2018-11-04T00:12:07.161Z,45.37
2018-11-04T00:14:37.218Z,52.37
2018-11-04T00:17:06.318Z,44.53
2018-11-04T00:19:36.377Z,44.77
2018-11-04T00:22:05.771Z,45.20
2018-11-04T00:24:35.372Z,41.73
2018-11-04T00:27:05.039Z,32.77
2018-11-04T00:29:34.477Z,36.93
2018-11-04T00:32:03.497Z,38.37
2018-11-04T00:34:33.160Z,44.73
2018-11-04T00:37:02.190Z,42.97
2018-11-04T00:39:31.705Z,31.83
2018-11-04T00:42:01.776Z,42.10
2018-11-04T00:44:30.575Z,40.73
2018-11-04T00:46:59.375Z,37.93
2018-11-04T00:49:28.932Z,31.43
2018-11-04T00:51:58.714Z,36.10
2018-11-04T00:54:28.294Z,45.67
2018-11-04T00:56:57.497Z,34.47
2018-11-04T00:59:27.367Z,34.00
2018-11-04T01:01:56.432Z,47.50
2018-11-04T01:04:25.281Z,43.03
2018-11-04T01:06:54.492Z,41.10
2018-11-04T01:09:23.359Z,34.43
2018-11-04T01:11:52.496Z,31.23
2018-11-04T01:14:21.393Z,33.57
2018-11-04T01:16:50.893Z,32.13
2018-11-04T01:19:20.062Z,30.43
2018-11-04T01:21:49.126Z,24.10
2018-11-04T01:24:18.911Z,30.83
2018-11-04T01:26:47.701Z,32.83
2018-11-04T01:29:16.886Z,33.23
2018-11-04T01:31:45.713Z,32.77
2018-11-04T01:34:14.938Z,33.77
2018-11-04T01:36:44.632Z,39.97
2018-11-04T01:39:13.570Z,37.60
2018-11-04T01:41:42.425Z,30.03
2018-11-04T01:44:11.818Z,31.23
2018-11-04T01:46:41.899Z,40.70
2018-11-04T01:49:10.717Z,38.70
2018-11-04T01:51:40.616Z,34.20
2018-11-04T01:54:09.492Z,33.33
2018-11-04T01:56:38.681Z,37.33
2018-11-04T01:59:07.547Z,34.40
2018-11-04T02:01:36.376Z,36.93
2018-11-04T02:04:05.779Z,33.43
2018-11-04T02:06:35.284Z,36.63
2018-11-04T02:09:05.885Z,53.93
2018-11-04T02:11:35.253Z,39.43
2018-11-04T02:14:04.088Z,48.93
2018-11-04T02:16:33.305Z,41.63
2018-11-04T02:19:02.173Z,35.53
2018-11-04T02:21:32.114Z,39.33
2018-11-04T02:24:00.976Z,38.20
2018-11-04T02:26:36.483Z,43.00
2018-11-04T02:29:05.879Z,45.33
2018-11-04T02:31:34.733Z,41.77
2018-11-04T02:34:04.355Z,42.07
2018-11-04T02:36:33.209Z,36.40
2018-11-04T02:39:02.305Z,45.50
2018-11-04T02:41:32.042Z,44.43
2018-11-04T02:44:00.869Z,43.70
2018-11-04T02:46:29.746Z,46.90
2018-11-04T02:49:00.204Z,35.53
2018-11-04T02:51:29.616Z,40.53
2018-11-04T02:53:59.328Z,39.90
2018-11-04T02:56:28.156Z,43.57
2018-11-04T02:58:56.988Z,36.93
2018-11-04T03:01:26.907Z,33.97
2018-11-04T03:03:55.943Z,33.33
2018-11-04T03:06:26.348Z,38.37
2018-11-04T03:08:55.192Z,34.07
2018-11-04T03:11:24.486Z,35.63
2018-11-04T03:13:54.384Z,33.23
2018-11-04T03:16:23.215Z,30.27
2018-11-04T03:18:52.463Z,35.57
2018-11-04T03:21:22.824Z,24.47
2018-11-04T03:23:51.694Z,37.33
2018-11-04T03:26:20.581Z,25.47
2018-11-04T03:28:51.290Z,27.07
2018-11-04T03:31:20.615Z,23.33
2018-11-04T03:33:49.660Z,25.93
2018-11-04T03:36:19.339Z,23.10
2018-11-04T03:38:49.710Z,27.43
2018-11-04T03:41:18.547Z,23.67
2018-11-04T03:43:49.481Z,30.00
2018-11-04T03:46:19.476Z,25.90
2018-11-04T03:48:48.335Z,28.67
2018-11-04T03:51:17.433Z,28.23
2018-11-04T03:53:46.764Z,29.43
2018-11-04T03:56:15.840Z,26.40
2018-11-04T03:58:45.617Z,27.27
2018-11-04T04:01:15.268Z,24.97
2018-11-04T04:03:45.011Z,28.97
2018-11-04T04:06:13.844Z,30.03
2018-11-04T04:08:43.392Z,26.87
2018-11-04T04:11:12.933Z,25.53
2018-11-04T04:13:41.782Z,31.30
2018-11-04T04:16:10.920Z,30.10
2018-11-04T04:18:39.836Z,28.23
2018-11-04T04:21:10.372Z,28.30
2018-11-04T04:23:41.231Z,25.37
2018-11-04T04:26:11.196Z,24.23
2018-11-04T04:28:40.486Z,26.33
2018-11-04T04:31:09.394Z,29.97
2018-11-04T04:33:38.947Z,24.67
2018-11-04T04:36:08.048Z,22.63
2018-11-04T04:38:36.850Z,21.20
2018-11-04T04:41:06.450Z,26.87
2018-11-04T04:43:35.297Z,29.13
2018-11-04T04:46:04.172Z,22.97
2018-11-04T04:48:33.017Z,23.10
2018-11-04T04:51:02.218Z,22.93
2018-11-04T04:53:31.597Z,25.97
2018-11-04T04:56:01.070Z,24.67
2018-11-04T04:58:30.925Z,24.60
2018-11-04T05:00:59.756Z,26.23
2018-11-04T05:03:28.621Z,23.03
2018-11-04T05:05:57.497Z,25.57
2018-11-04T05:08:27.899Z,24.53
2018-11-04T05:10:57.442Z,27.80
2018-11-04T05:13:27.455Z,26.47
2018-11-04T05:15:56.720Z,27.27
2018-11-04T05:18:26.189Z,20.77
2018-11-04T05:20:55.060Z,24.57
2018-11-04T05:23:24.697Z,33.10
2018-11-04T05:25:54.139Z,23.63
2018-11-04T05:28:23.206Z,24.67
2018-11-04T05:30:52.043Z,23.53
2018-11-04T05:33:21.085Z,23.87
2018-11-04T05:35:50.283Z,28.57
2018-11-04T05:38:19.458Z,28.63
2018-11-04T05:40:48.271Z,25.33
2018-11-04T05:43:19.426Z,39.40
2018-11-04T05:45:48.239Z,24.47
2018-11-04T05:48:18.224Z,37.27
2018-11-04T05:50:47.345Z,29.83
2018-11-04T05:53:17.255Z,32.90
2018-11-04T05:55:47.401Z,30.90
2018-11-04T05:58:17.069Z,27.40
2018-11-04T06:00:46.083Z,33.10
2018-11-04T06:03:15.132Z,30.00
2018-11-04T06:05:43.941Z,33.87
2018-11-04T06:08:13.101Z,33.93
2018-11-04T06:10:41.885Z,31.00
2018-11-04T06:13:10.639Z,32.10
2018-11-04T06:15:39.414Z,29.30
2018-11-04T06:18:08.202Z,29.57
2018-11-04T06:20:37.312Z,33.23
2018-11-04T06:23:06.416Z,37.33
2018-11-04T06:25:35.988Z,30.40
2018-11-04T06:28:04.960Z,28.33
2018-11-04T06:30:34.128Z,30.13
2018-11-04T06:33:03.595Z,27.73
2018-11-04T06:35:32.899Z,32.93
2018-11-04T06:38:01.769Z,34.33
2018-11-04T06:40:30.681Z,31.83
2018-11-04T06:42:59.921Z,36.03
2018-11-04T06:45:29.026Z,26.77
2018-11-04T06:47:58.550Z,29.70
2018-11-04T06:50:27.784Z,29.90
2018-11-04T06:52:56.644Z,32.37
2018-11-04T06:55:26.660Z,27.07
2018-11-04T06:57:55.505Z,26.93
2018-11-04T07:00:24.373Z,32.83
2018-11-04T07:02:53.208Z,30.47
2018-11-04T07:05:22.181Z,29.73
2018-11-04T07:07:51.095Z,37.13
2018-11-04T07:10:20.600Z,27.70
2018-11-04T07:12:49.444Z,28.60
2018-11-04T07:15:18.270Z,26.33
2018-11-04T07:17:47.951Z,26.97
2018-11-04T07:20:17.063Z,32.50
2018-11-04T07:22:47.488Z,24.47
2018-11-04T07:25:16.364Z,26.07
2018-11-04T07:27:50.283Z,35.90
2018-11-04T07:30:20.002Z,27.97
2018-11-04T07:32:52.770Z,31.73
2018-11-04T07:35:30.320Z,29.30
2018-11-04T07:38:00.404Z,25.93
2018-11-04T07:40:29.495Z,28.33
2018-11-04T07:42:58.696Z,26.77
2018-11-04T07:45:27.996Z,21.30
2018-11-04T07:47:57.412Z,25.97
2018-11-04T07:50:26.314Z,20.93
2018-11-04T07:52:56.028Z,30.13
2018-11-04T07:55:25.245Z,27.23
2018-11-04T07:57:54.434Z,28.00
2018-11-04T08:00:25.041Z,34.93
2018-11-04T08:02:54.212Z,29.03
2018-11-04T08:05:23.658Z,23.30
2018-11-04T08:07:53.124Z,28.40
2018-11-04T08:10:21.973Z,27.43
2018-11-04T08:12:50.779Z,26.07
2018-11-04T08:15:23.513Z,30.43
2018-11-04T08:17:53.312Z,21.83
2018-11-04T08:20:22.134Z,24.97
2018-11-04T08:22:51.193Z,22.97
2018-11-04T08:25:20.385Z,23.23
2018-11-04T08:27:50.763Z,26.73
2018-11-04T08:30:19.562Z,23.60
2018-11-04T08:32:48.750Z,24.90
2018-11-04T08:35:18.614Z,22.10
2018-11-04T08:37:47.493Z,25.13
2018-11-04T08:40:17.386Z,32.13
2018-11-04T08:42:47.655Z,24.63
2018-11-04T08:45:17.516Z,28.70
2018-11-04T08:47:46.580Z,27.37
2018-11-04T08:50:16.166Z,25.80
2018-11-04T08:52:45.064Z,26.23
2018-11-04T08:55:14.382Z,28.47
2018-11-04T08:57:43.320Z,22.50
2018-11-04T09:00:13.796Z,32.90
2018-11-04T09:02:44.610Z,25.47
2018-11-04T09:05:13.716Z,26.47
2018-11-04T09:07:43.153Z,25.97
2018-11-04T09:10:14.464Z,34.30
2018-11-04T09:12:43.960Z,27.53
2018-11-04T09:15:13.272Z,30.90
2018-11-04T09:17:43.837Z,30.37
2018-11-04T09:20:14.396Z,31.33
2018-11-04T09:22:45.301Z,30.43
2018-11-04T09:25:14.358Z,25.70
2018-11-04T09:27:43.431Z,27.30
2018-11-04T09:30:14.393Z,29.83
2018-11-04T09:32:45.932Z,25.43
2018-11-04T09:35:15.110Z,26.70
2018-11-04T09:37:43.874Z,27.93
2018-11-04T09:40:13.383Z,27.50
2018-11-04T09:42:42.487Z,23.00
2018-11-04T09:45:11.633Z,28.40
2018-11-04T09:47:40.521Z,34.33
2018-11-04T09:50:10.787Z,24.47
2018-11-04T09:52:39.876Z,28.77
2018-11-04T09:55:10.193Z,33.03
2018-11-04T09:57:39.033Z,29.80
2018-11-04T10:00:10.310Z,27.23
2018-11-04T10:02:39.413Z,26.07
2018-11-04T10:05:09.112Z,27.33
2018-11-04T10:07:38.671Z,26.23
2018-11-04T10:10:10.112Z,26.67
2018-11-04T10:12:39.464Z,28.90
2018-11-04T10:15:08.805Z,27.80
2018-11-04T10:17:37.954Z,25.40
2018-11-04T10:20:08.213Z,25.57
2018-11-04T10:22:37.735Z,27.50
2018-11-04T10:25:07.670Z,26.67
2018-11-04T10:27:36.687Z,28.57
2018-11-04T10:30:07.793Z,26.43
2018-11-04T10:32:37.696Z,24.73
2018-11-04T10:35:07.176Z,23.13
2018-11-04T10:37:36.254Z,25.83
2018-11-04T10:40:06.402Z,30.07
2018-11-04T10:42:36.419Z,31.03
2018-11-04T10:45:07.122Z,26.73
2018-11-04T10:47:36.755Z,26.80
2018-11-04T10:50:07.804Z,29.17
2018-11-04T10:52:37.752Z,26.73
2018-11-04T10:55:07.093Z,27.17
2018-11-04T10:57:37.717Z,25.63
2018-11-04T11:00:13.059Z,24.30
2018-11-04T11:02:42.474Z,31.50
2018-11-04T11:05:11.314Z,29.40
2018-11-04T11:07:42.034Z,28.77
2018-11-04T11:10:11.662Z,30.60
2018-11-04T11:12:41.371Z,21.63
2018-11-04T11:15:11.267Z,24.37
2018-11-04T11:17:40.710Z,30.37
2018-11-04T11:20:10.646Z,30.60
2018-11-04T11:22:41.168Z,33.63
2018-11-04T11:25:10.958Z,25.60
2018-11-04T11:27:42.093Z,28.73
2018-11-04T11:30:11.028Z,39.87
2018-11-04T11:32:41.090Z,29.33
2018-11-04T11:35:10.005Z,26.20
2018-11-04T11:37:39.270Z,33.10
2018-11-04T11:40:08.839Z,25.37
2018-11-04T11:42:38.099Z,29.27
2018-11-04T11:45:08.146Z,28.97
2018-11-04T11:47:37.730Z,28.53
2018-11-04T11:50:07.554Z,31.00
2018-11-04T11:52:36.925Z,28.87
2018-11-04T11:55:06.294Z,37.60
2018-11-04T11:57:35.384Z,30.77
2018-11-04T12:00:07.327Z,32.40
2018-11-04T12:02:36.911Z,29.57
2018-11-04T12:05:07.452Z,32.20
2018-11-04T12:07:36.480Z,28.23
2018-11-04T12:10:08.015Z,25.73
2018-11-04T12:12:37.796Z,23.90
2018-11-04T12:15:12.332Z,27.50
2018-11-04T12:17:43.482Z,27.93
2018-11-04T12:20:17.925Z,33.37
2018-11-04T12:22:47.116Z,29.17
2018-11-04T12:25:16.421Z,29.03
2018-11-04T12:27:45.358Z,31.00
2018-11-04T12:30:16.985Z,34.00
2018-11-04T12:32:45.857Z,35.43
2018-11-04T12:35:15.297Z,28.87
2018-11-04T12:37:45.661Z,28.73
2018-11-04T12:40:16.199Z,34.37
2018-11-04T12:42:45.764Z,29.37
2018-11-04T12:45:14.848Z,31.50
2018-11-04T12:47:43.733Z,34.87
2018-11-04T12:50:13.306Z,32.00
2018-11-04T12:52:42.540Z,31.00
2018-11-04T12:55:11.484Z,30.50
2018-11-04T12:57:40.391Z,31.70
2018-11-04T13:00:12.751Z,28.03
2018-11-04T13:02:42.167Z,35.03
2018-11-04T13:05:11.588Z,33.20
2018-11-04T13:07:41.181Z,35.83
2018-11-04T13:10:11.761Z,39.40
2018-11-04T13:12:45.970Z,30.30
2018-11-04T13:15:16.028Z,35.33
2018-11-04T13:17:45.534Z,31.97
2018-11-04T13:20:15.487Z,30.37
2018-11-04T13:22:45.196Z,33.10
2018-11-04T13:25:14.060Z,34.48
2018-11-04T13:27:43.456Z,33.13
2018-11-04T13:30:14.189Z,30.53
2018-11-04T13:32:44.469Z,32.33
2018-11-04T13:35:17.354Z,38.03
2018-11-04T13:37:46.214Z,34.37
2018-11-04T13:40:17.357Z,30.43
2018-11-04T13:42:48.067Z,28.53
2018-11-04T13:45:23.989Z,29.13
2018-11-04T13:47:56.217Z,32.30
2018-11-04T13:50:28.006Z,33.50
2018-11-04T13:52:56.878Z,31.33
2018-11-04T13:55:25.946Z,32.07
2018-11-04T13:58:01.352Z,36.40
2018-11-04T14:00:31.102Z,37.87
2018-11-04T14:03:00.116Z,31.90
2018-11-04T14:05:29.922Z,29.83
2018-11-04T14:07:59.023Z,27.30
2018-11-04T14:10:30.120Z,31.73
2018-11-04T14:12:59.834Z,35.13
2018-11-04T14:15:33.048Z,27.00
2018-11-04T14:18:01.936Z,27.90
2018-11-04T14:20:31.472Z,28.37
2018-11-04T14:23:00.253Z,32.47
2018-11-04T14:25:31.794Z,29.60
2018-11-04T14:28:05.197Z,32.80
2018-11-04T14:30:34.568Z,30.60
2018-11-04T14:33:06.455Z,34.27
2018-11-04T14:35:36.044Z,34.77
2018-11-04T14:38:04.896Z,31.93
2018-11-04T14:40:34.100Z,32.83
2018-11-04T14:43:06.917Z,30.40
2018-11-04T14:45:37.333Z,37.73
2018-11-04T14:48:10.043Z,33.03
2018-11-04T14:50:41.096Z,35.43
2018-11-04T14:53:10.040Z,38.10
2018-11-04T14:55:40.595Z,35.57
2018-11-04T14:58:09.459Z,36.30
2018-11-04T15:00:38.366Z,36.40
2018-11-04T15:03:08.121Z,35.27
2018-11-04T15:05:38.010Z,40.50
2018-11-04T15:08:07.945Z,41.07
2018-11-04T15:10:37.252Z,42.30
2018-11-04T15:13:06.327Z,41.43
2018-11-04T15:15:35.928Z,42.27
2018-11-04T15:18:04.775Z,37.13
2018-11-04T15:20:33.896Z,38.30
2018-11-04T15:23:03.604Z,44.63
2018-11-04T15:25:32.664Z,37.73
2018-11-04T15:28:01.599Z,46.00
2018-11-04T15:30:30.445Z,39.70
2018-11-04T15:33:00.606Z,39.83
2018-11-04T15:35:29.875Z,35.40
2018-11-04T15:37:59.046Z,43.70
2018-11-04T15:40:28.262Z,39.40
2018-11-04T15:42:57.139Z,44.43
2018-11-04T15:45:26.409Z,45.47
2018-11-04T15:47:55.276Z,46.43
2018-11-04T15:50:24.098Z,49.50
2018-11-04T15:52:53.140Z,42.10
2018-11-04T15:55:22.030Z,50.00
2018-11-04T15:57:52.837Z,44.23
2018-11-04T16:00:22.592Z,53.13
2018-11-04T16:02:52.360Z,53.30
2018-11-04T16:05:21.646Z,55.87
2018-11-04T16:07:50.319Z,52.07
2018-11-04T16:10:19.659Z,54.63
2018-11-04T16:12:48.949Z,57.03
2018-11-04T16:15:18.047Z,55.63
2018-11-04T16:17:46.874Z,63.40
2018-11-04T16:20:16.466Z,56.77
2018-11-04T16:22:47.562Z,67.97
2018-11-04T16:25:16.483Z,60.33
2018-11-04T16:27:45.999Z,63.20
2018-11-04T16:30:15.607Z,63.90
2018-11-04T16:32:44.717Z,65.07
2018-11-04T16:35:15.464Z,65.37
2018-11-04T16:37:45.005Z,62.73
2018-11-04T16:40:13.755Z,71.37
2018-11-04T16:42:43.137Z,63.30
2018-11-04T16:45:14.955Z,66.37
2018-11-04T16:47:44.616Z,61.33
2018-11-04T16:50:14.151Z,68.27
2018-11-04T16:52:43.824Z,76.40
2018-11-04T16:55:13.793Z,80.97
2018-11-04T16:57:43.830Z,84.63
2018-11-04T17:00:12.866Z,80.47
2018-11-04T17:02:41.761Z,79.67
2018-11-04T17:05:11.621Z,80.23
2018-11-04T17:07:40.751Z,75.53
2018-11-04T17:10:10.470Z,76.97
2018-11-04T17:12:39.496Z,74.47
2018-11-04T17:15:09.900Z,76.40
2018-11-04T17:17:39.020Z,73.43
2018-11-04T17:20:10.781Z,80.07
2018-11-04T17:22:39.813Z,62.60
2018-11-04T17:25:08.922Z,78.57
2018-11-04T17:27:37.846Z,77.50
2018-11-04T17:30:10.312Z,77.37
2018-11-04T17:32:39.148Z,79.23
2018-11-04T17:35:09.097Z,76.57
2018-11-04T17:37:38.759Z,71.77
2018-11-04T17:40:09.953Z,83.70
2018-11-04T17:42:39.507Z,71.70
2018-11-04T17:45:11.090Z,73.63
2018-11-04T17:47:39.933Z,79.10
2018-11-04T17:50:11.765Z,78.40
2018-11-04T17:52:41.721Z,79.63
2018-11-04T17:55:10.978Z,77.20
2018-11-04T17:57:41.083Z,80.23
2018-11-04T18:00:10.734Z,86.23
2018-11-04T18:02:40.234Z,87.00
2018-11-04T18:05:09.741Z,81.87
2018-11-04T18:07:38.740Z,99.90
2018-11-04T18:10:09.082Z,81.77
2018-11-04T18:12:38.185Z,80.33
2018-11-04T18:15:07.558Z,84.30
2018-11-04T18:17:37.263Z,78.60
2018-11-04T18:20:08.111Z,88.17
2018-11-04T18:22:37.058Z,82.23
2018-11-04T18:25:08.508Z,77.77
2018-11-04T18:27:38.250Z,76.00
2018-11-04T18:30:16.577Z,82.90
2018-11-04T18:32:49.350Z,79.13
2018-11-04T18:35:20.006Z,81.33
2018-11-04T18:37:50.309Z,77.70
2018-11-04T18:40:20.123Z,85.97
2018-11-04T18:42:49.953Z,94.57
2018-11-04T18:45:19.093Z,82.57
2018-11-04T18:47:48.993Z,87.47
2018-11-04T18:50:19.784Z,85.50
2018-11-04T18:52:51.226Z,81.17
2018-11-04T18:55:20.474Z,86.50
2018-11-04T18:57:51.050Z,81.07
2018-11-04T19:00:21.273Z,72.73
2018-11-04T19:02:50.253Z,74.53
2018-11-04T19:05:19.730Z,72.43
2018-11-04T19:07:49.137Z,70.63
2018-11-04T19:10:19.178Z,72.80
2018-11-04T19:12:48.254Z,73.00
2018-11-04T19:15:21.109Z,71.60
2018-11-04T19:17:53.211Z,75.63
2018-11-04T19:20:26.900Z,84.13
2018-11-04T19:22:56.198Z,85.03
2018-11-04T19:25:26.347Z,87.27
2018-11-04T19:27:56.509Z,82.70
2018-11-04T19:30:29.858Z,87.13
2018-11-04T19:33:05.439Z,83.57
2018-11-04T19:35:36.781Z,84.33
2018-11-04T19:38:06.746Z,83.03
2018-11-04T19:40:36.336Z,100.03
2018-11-04T19:43:05.386Z,94.87
2018-11-04T19:45:35.305Z,89.20
2018-11-04T19:48:09.300Z,94.33
2018-11-04T19:50:39.080Z,98.93
2018-11-04T19:53:08.263Z,97.23
2018-11-04T19:55:40.348Z,94.67
2018-11-04T19:58:15.317Z,95.80
2018-11-04T20:00:51.917Z,95.93
2018-11-04T20:03:22.680Z,88.87
2018-11-04T20:05:54.016Z,98.30
2018-11-04T20:08:23.225Z,97.30
2018-11-04T20:10:53.096Z,112.40
2018-11-04T20:13:27.413Z,87.10
2018-11-04T20:15:57.152Z,95.17
2018-11-04T20:18:31.409Z,95.13
2018-11-04T20:21:00.389Z,107.23
2018-11-04T20:23:29.776Z,98.27
2018-11-04T20:25:59.972Z,118.30
2018-11-04T20:28:29.190Z,117.10
2018-11-04T20:30:59.644Z,116.33
2018-11-04T20:33:29.874Z,118.10
2018-11-04T20:35:58.798Z,115.77
2018-11-04T20:38:33.515Z,101.27
2018-11-04T20:41:09.335Z,105.83
2018-11-04T20:43:38.141Z,110.50
2018-11-04T20:46:07.846Z,119.40
2018-11-04T20:48:42.085Z,102.40
2018-11-04T20:51:10.877Z,105.37
2018-11-04T20:53:39.729Z,106.57
2018-11-04T20:56:14.058Z,103.73
2018-11-04T20:58:43.900Z,102.43
2018-11-04T21:01:12.946Z,109.50
2018-11-04T21:03:42.373Z,119.27
2018-11-04T21:06:11.836Z,106.67
2018-11-04T21:08:40.737Z,119.37
2018-11-04T21:11:09.495Z,110.17
2018-11-04T21:13:38.268Z,106.23
2018-11-04T21:16:07.886Z,102.50
2018-11-04T21:18:37.179Z,111.20
2018-11-04T21:21:06.701Z,114.43
2018-11-04T21:23:36.786Z,107.37
2018-11-04T21:26:05.757Z,98.70
2018-11-04T21:28:35.747Z,110.47
2018-11-04T21:31:04.490Z,103.63
2018-11-04T21:33:33.288Z,104.70
2018-11-04T21:36:02.238Z,99.93
2018-11-04T21:38:31.819Z,102.63
2018-11-04T21:41:00.882Z,97.80
2018-11-04T21:43:30.775Z,98.50
2018-11-04T21:45:59.287Z,100.87
2018-11-04T21:48:28.114Z,98.90
2018-11-04T21:50:57.163Z,103.97
2018-11-04T21:53:26.798Z,95.33
2018-11-04T21:55:55.679Z,100.70
2018-11-04T21:58:24.688Z,102.87
2018-11-04T22:00:53.528Z,103.17
2018-11-04T22:03:23.129Z,117.10
2018-11-04T22:05:52.309Z,97.27
2018-11-04T22:08:21.452Z,98.93
2018-11-04T22:10:50.341Z,110.43
2018-11-04T22:13:20.534Z,113.93
2018-11-04T22:15:50.076Z,114.50
2018-11-04T22:18:19.161Z,123.13
2018-11-04T22:20:48.608Z,120.37
2018-11-04T22:23:18.409Z,138.13
2018-11-04T22:25:48.348Z,126.03
2018-11-04T22:28:18.519Z,125.20
2018-11-04T22:30:47.340Z,123.80
2018-11-04T22:33:16.165Z,132.00
2018-11-04T22:35:46.650Z,127.00
2018-11-04T22:38:15.497Z,113.43
2018-11-04T22:40:44.333Z,129.83
2018-11-04T22:43:13.215Z,121.27
2018-11-04T22:45:42.060Z,114.87
2018-11-04T22:48:10.894Z,121.17
2018-11-04T22:50:40.680Z,116.20
2018-11-04T22:53:09.512Z,116.40
2018-11-04T22:55:38.350Z,121.07
2018-11-04T22:58:08.828Z,122.50
2018-11-04T23:00:43.830Z,120.47
2018-11-04T23:03:13.583Z,114.33
2018-11-04T23:05:43.677Z,118.20
2018-11-04T23:08:13.610Z,124.83
2018-11-04T23:10:42.468Z,120.77
2018-11-04T23:13:11.646Z,128.13
2018-11-04T23:15:40.691Z,118.03
2018-11-04T23:18:09.529Z,105.60
2018-11-04T23:20:39.249Z,110.50
2018-11-04T23:23:08.532Z,109.83
2018-11-04T23:25:37.668Z,131.10
2018-11-04T23:28:06.878Z,125.13
2018-11-04T23:30:36.058Z,133.07
2018-11-04T23:33:04.924Z,120.40
2018-11-04T23:35:34.564Z,122.00
2018-11-04T23:38:03.986Z,110.90
2018-11-04T23:40:33.445Z,112.73
2018-11-04T23:43:02.366Z,120.07
2018-11-04T23:45:32.492Z,110.37
2018-11-04T23:48:01.333Z,97.13
2018-11-04T23:50:30.482Z,111.33
2018-11-04T23:52:59.332Z,108.70
2018-11-04T23:55:28.378Z,104.83
2018-11-04T23:57:59.605Z,108.53
